Agra, Kansas
Current Conditions -  °F | °C
As of 5:53 PM on Wednesday 22 Oct 2014 (Local Time) from KHLC Reporting Station
Thunderstorm Thunderstorm  
Wind Chill: 21°   Ceiling: 4300
Heat Index: 21°   Visibility: 10mi
Dew Point: 14°   Wind: 12mph
Humidity: 65%   Direction: 10°N
Pressure: 29.98"   Gusts: NA
Location:  39.76°N, 99.12°W
Report Text: KHLC 222253Z AUTO 01010KT 10SM VCTS BKN043 OVC055 21/14 A2998 RMK AO2 LTG DSNT NE AND E TSE43 SLP138 T02110144
Loading
Personal Weather Stations






























Interactive Weather Map
Tropical Storm Tracking
New forecast layout! Learn more

10-Day Weather Forecast

Advertisements
Track Severe Weather on mobile